Genbu — JD4128 — position and weather

sailwx.info

Track history (hours):
 
Tides and Currents Weather Stations Pressure Air Temp Water Temp Dewpoint Dewpoint Depression Visibility Wind Speed Wind Dir Waves Ship Positions

Genbu

Last reported at 2017-Nov-23 09:05 UTC. Time now 2017-Nov-23 15:20 UTC.
Position N 34°53' E 140°06'.

Length 149 m; draft 6.7 m.

Type: Ship. MMSI: 431009113.

Date/timePositionNaut miles runAvg speedWind from/ knotsBaromVisibWave heightAir tempDewpointWater temp
2017-Nov-23 09:05N 34°53' E 140°06'1118.9
2017-Nov-23 08:31N 34°50' E 139°53'219.2
2017-Nov-23 08:26N 34°51' E 139°51'817.7
2017-Nov-23 08:00N 34°56' E 139°44'918.6
2017-Nov-23 07:30N 35°05' E 139°43'917.2
2017-Nov-23 07:00N 35°13' E 139°46'611.9
2017-Nov-23 06:30N 35°19' E 139°43'612.5
2017-Nov-23 06:00N 35°25' E 139°44'612.2
2017-Nov-23 05:30N 35°30' E 139°47'0 0.8
2017-Nov-23 04:59N 35°30' E 139°46'0 0.0
2017-Nov-23 04:29N 35°30' E 139°46'0 0.0
2017-Nov-23 03:59N 35°30' E 139°46'0 0.0
2017-Nov-23 03:29N 35°30' E 139°46'0 0.0
2017-Nov-23 03:00N 35°30' E 139°46'4 7.3
2017-Nov-23 02:30N 35°29' E 139°42'5 9.3
2017-Nov-23 02:00N 35°25' E 139°46'4 8.8
2017-Nov-23 01:30N 35°21' E 139°45'4 8.4
2017-Nov-23 01:00N 35°19' E 139°40'1 2.0
2017-Nov-23 00:29N 35°19' E 139°39'0 0.0
2017-Nov-22 23:59N 35°19' E 139°39'0 0.0
2017-Nov-22 23:29N 35°19' E 139°39'0 0.2
2017-Nov-22 23:00N 35°19' E 139°39'4 7.5
2017-Nov-22 22:30N 35°22' E 139°42'713.9
2017-Nov-22 22:00N 35°28' E 139°46'3 5.2
2017-Nov-22 21:30N 35°30' E 139°46'0 0.0
2017-Nov-22 20:58N 35°30' E 139°46'0 0.0
2017-Nov-22 20:25N 35°30' E 139°46'0 0.0
2017-Nov-22 19:55N 35°30' E 139°46'0 0.0
2017-Nov-22 19:19N 35°30' E 139°46'  
2017-Nov-18 09:01N 34°53' E 140°05'219.8
2017-Nov-18 08:56N 34°52' E 140°04'1019.2
2017-Nov-18 08:26N 34°50' E 139°52'919.1
2017-Nov-18 07:59N 34°55' E 139°44'918.5
2017-Nov-18 07:30N 35°04' E 139°43'916.7
2017-Nov-18 07:00N 35°12' E 139°46'510.7
2017-Nov-18 06:30N 35°17' E 139°45'5 9.2
2017-Nov-18 06:01N 35°19' E 139°39'0 0.2
2017-Nov-18 05:30N 35°19' E 139°39'0 0.0
2017-Nov-18 05:00N 35°19' E 139°39'0 0.0
2017-Nov-18 04:30N 35°19' E 139°39'0 0.1
2017-Nov-18 04:00N 35°19' E 139°39'4 7.4
2017-Nov-18 03:30N 35°22' E 139°42'815.1
2017-Nov-18 03:00N 35°28' E 139°47'2 1.1
2017-Nov-18 01:02N 35°30' E 139°46'0 0.1
2017-Nov-18 00:59N 35°30' E 139°46'0 0.0
2017-Nov-18 00:29N 35°30' E 139°46'0 0.0
2017-Nov-17 23:59N 35°30' E 139°46'0 0.0
2017-Nov-17 23:23N 35°30' E 139°46'0 0.0
2017-Nov-17 13:59N 35°30' E 139°46'0 0.0
2017-Nov-17 13:29N 35°30' E 139°46'0 0.0
2017-Nov-17 01:35N 35°30' E 139°46'0 0.1
2017-Nov-17 01:29N 35°30' E 139°46'0 0.0
2017-Nov-17 00:59N 35°30' E 139°46'0 0.0
2017-Nov-17 00:17N 35°30' E 139°46'0 0.4
2017-Nov-17 00:00N 35°30' E 139°46'4 7.9
2017-Nov-16 23:30N 35°28' E 139°42'5 9.9
2017-Nov-16 23:00N 35°24' E 139°46'5 9.6
2017-Nov-16 22:30N 35°20' E 139°44'5 9.8
2017-Nov-16 22:01N 35°15' E 139°47'611.2
2017-Nov-16 21:30N 35°10' E 139°46'510.7
2017-Nov-16 21:00N 35°05' E 139°45'713.5
2017-Nov-16 20:31N 34°58' E 139°43'814.9
2017-Nov-16 19:58N 34°51' E 139°48'  
Track history (hours):
 
Tides and Currents Weather Stations Pressure Air Temp Water Temp Dewpoint Dewpoint Depression Visibility Wind Speed Wind Dir Waves Ship Positions

Genbu

Last reported at 2017-Nov-23 09:05 UTC. Time now 2017-Nov-23 15:20 UTC.
Position N 34°53' E 140°06'.

Length 149 m; draft 6.7 m.

Type: Ship. MMSI: 431009113.

Date/timePositionNaut miles runAvg speedWind from/ knotsBaromVisibWave heightAir tempDewpointWater temp
2017-Nov-23 09:05N 34°53' E 140°06'1118.9
2017-Nov-23 08:31N 34°50' E 139°53'219.2
2017-Nov-23 08:26N 34°51' E 139°51'817.7
2017-Nov-23 08:00N 34°56' E 139°44'918.6
2017-Nov-23 07:30N 35°05' E 139°43'917.2
2017-Nov-23 07:00N 35°13' E 139°46'611.9
2017-Nov-23 06:30N 35°19' E 139°43'612.5
2017-Nov-23 06:00N 35°25' E 139°44'612.2
2017-Nov-23 05:30N 35°30' E 139°47'0 0.8
2017-Nov-23 04:59N 35°30' E 139°46'0 0.0
2017-Nov-23 04:29N 35°30' E 139°46'0 0.0
2017-Nov-23 03:59N 35°30' E 139°46'0 0.0
2017-Nov-23 03:29N 35°30' E 139°46'0 0.0
2017-Nov-23 03:00N 35°30' E 139°46'4 7.3
2017-Nov-23 02:30N 35°29' E 139°42'5 9.3
2017-Nov-23 02:00N 35°25' E 139°46'4 8.8
2017-Nov-23 01:30N 35°21' E 139°45'4 8.4
2017-Nov-23 01:00N 35°19' E 139°40'1 2.0
2017-Nov-23 00:29N 35°19' E 139°39'0 0.0
2017-Nov-22 23:59N 35°19' E 139°39'0 0.0
2017-Nov-22 23:29N 35°19' E 139°39'0 0.2
2017-Nov-22 23:00N 35°19' E 139°39'4 7.5
2017-Nov-22 22:30N 35°22' E 139°42'713.9
2017-Nov-22 22:00N 35°28' E 139°46'3 5.2
2017-Nov-22 21:30N 35°30' E 139°46'0 0.0
2017-Nov-22 20:58N 35°30' E 139°46'0 0.0
2017-Nov-22 20:25N 35°30' E 139°46'0 0.0
2017-Nov-22 19:55N 35°30' E 139°46'0 0.0
2017-Nov-22 19:19N 35°30' E 139°46'  
2017-Nov-18 09:01N 34°53' E 140°05'219.8
2017-Nov-18 08:56N 34°52' E 140°04'1019.2
2017-Nov-18 08:26N 34°50' E 139°52'919.1
2017-Nov-18 07:59N 34°55' E 139°44'918.5
2017-Nov-18 07:30N 35°04' E 139°43'916.7
2017-Nov-18 07:00N 35°12' E 139°46'510.7
2017-Nov-18 06:30N 35°17' E 139°45'5 9.2
2017-Nov-18 06:01N 35°19' E 139°39'0 0.2
2017-Nov-18 05:30N 35°19' E 139°39'0 0.0
2017-Nov-18 05:00N 35°19' E 139°39'0 0.0
2017-Nov-18 04:30N 35°19' E 139°39'0 0.1
2017-Nov-18 04:00N 35°19' E 139°39'4 7.4
2017-Nov-18 03:30N 35°22' E 139°42'815.1
2017-Nov-18 03:00N 35°28' E 139°47'2 1.1
2017-Nov-18 01:02N 35°30' E 139°46'0 0.1
2017-Nov-18 00:59N 35°30' E 139°46'0 0.0
2017-Nov-18 00:29N 35°30' E 139°46'0 0.0
2017-Nov-17 23:59N 35°30' E 139°46'0 0.0
2017-Nov-17 23:23N 35°30' E 139°46'0 0.0
2017-Nov-17 13:59N 35°30' E 139°46'0 0.0
2017-Nov-17 13:29N 35°30' E 139°46'0 0.0
2017-Nov-17 01:35N 35°30' E 139°46'0 0.1
2017-Nov-17 01:29N 35°30' E 139°46'0 0.0
2017-Nov-17 00:59N 35°30' E 139°46'0 0.0
2017-Nov-17 00:17N 35°30' E 139°46'0 0.4
2017-Nov-17 00:00N 35°30' E 139°46'4 7.9
2017-Nov-16 23:30N 35°28' E 139°42'5 9.9
2017-Nov-16 23:00N 35°24' E 139°46'5 9.6
2017-Nov-16 22:30N 35°20' E 139°44'5 9.8
2017-Nov-16 22:01N 35°15' E 139°47'611.2
2017-Nov-16 21:30N 35°10' E 139°46'510.7
2017-Nov-16 21:00N 35°05' E 139°45'713.5
2017-Nov-16 20:31N 34°58' E 139°43'814.9
2017-Nov-16 19:58N 34°51' E 139°48'  

Dump ship's entire track history